createdAt,value
2022-12-08T00:02:00.251Z,18.25
2022-12-08T00:04:28.862Z,15.50
2022-12-08T00:07:15.266Z,15.50
2022-12-08T00:09:43.795Z,14.75
2022-12-08T00:12:16.203Z,13.00
2022-12-08T00:14:48.304Z,14.00
2022-12-08T00:17:17.907Z,13.00
2022-12-08T00:19:46.731Z,12.75
2022-12-08T00:22:16.135Z,13.00
2022-12-08T00:24:46.578Z,11.75
2022-12-08T00:27:16.521Z,10.00
2022-12-08T00:29:46.254Z,9.50
2022-12-08T00:32:15.818Z,9.25
2022-12-08T00:34:44.193Z,9.00
2022-12-08T00:37:12.496Z,10.00
2022-12-08T00:39:40.779Z,9.25
2022-12-08T00:42:15.462Z,7.00
2022-12-08T00:44:45.585Z,7.25
2022-12-08T00:47:15.123Z,7.00
2022-12-08T00:49:43.501Z,6.00
2022-12-08T00:52:13.553Z,6.50
2022-12-08T00:54:41.889Z,8.00
2022-12-08T00:57:10.212Z,7.00
2022-12-08T00:59:38.619Z,9.50
2022-12-08T01:02:07.005Z,8.75
2022-12-08T01:04:35.374Z,9.50
2022-12-08T01:07:03.752Z,8.75
2022-12-08T01:09:32.074Z,6.25
2022-12-08T01:12:00.795Z,8.00
2022-12-08T01:14:29.193Z,6.25
2022-12-08T01:16:57.603Z,7.50
2022-12-08T01:19:26.078Z,8.00
2022-12-08T01:21:54.396Z,7.25
2022-12-08T01:24:23.086Z,7.50
2022-12-08T01:26:52.470Z,6.00
2022-12-08T01:29:21.243Z,7.75
2022-12-08T01:31:49.590Z,7.00
2022-12-08T01:34:17.930Z,5.75
2022-12-08T01:36:46.465Z,6.50
2022-12-08T01:39:19.758Z,5.75
2022-12-08T01:41:50.465Z,5.25
2022-12-08T01:44:18.984Z,6.00
2022-12-08T01:46:51.168Z,7.00
2022-12-08T01:49:26.357Z,6.50
2022-12-08T01:52:28.296Z,7.00
2022-12-08T01:55:07.730Z,5.00
2022-12-08T01:57:43.417Z,9.00
2022-12-08T02:00:15.815Z,7.50
2022-12-08T02:02:59.556Z,8.25
2022-12-08T02:05:36.279Z,5.25
2022-12-08T02:08:08.234Z,5.50
2022-12-08T02:10:40.458Z,7.25
2022-12-08T02:13:14.346Z,6.50
2022-12-08T02:15:53.352Z,4.75
2022-12-08T02:18:24.387Z,3.75
2022-12-08T02:21:33.023Z,5.00
2022-12-08T02:24:04.461Z,4.00
2022-12-08T02:26:44.720Z,4.50
2022-12-08T02:29:25.040Z,3.75
2022-12-08T02:32:20.839Z,4.00
2022-12-08T02:35:10.401Z,4.00
2022-12-08T02:37:51.507Z,5.00
2022-12-08T02:40:26.099Z,4.25
2022-12-08T02:43:07.820Z,3.00
2022-12-08T02:45:47.547Z,5.75
2022-12-08T02:48:16.807Z,4.00
2022-12-08T02:50:45.462Z,3.75
2022-12-08T02:55:52.643Z,4.00
2022-12-08T02:58:36.259Z,3.75
2022-12-08T03:01:25.783Z,4.75
2022-12-08T03:03:54.119Z,4.00
2022-12-08T03:06:53.228Z,4.75
2022-12-08T03:09:46.249Z,4.00
2022-12-08T03:12:22.217Z,3.75
2022-12-08T03:14:56.709Z,4.25
2022-12-08T03:17:28.661Z,4.00
2022-12-08T03:20:01.054Z,3.75
2022-12-08T03:22:30.815Z,4.00
2022-12-08T03:24:59.790Z,5.00
2022-12-08T03:27:32.493Z,4.00
2022-12-08T03:30:02.716Z,3.75
2022-12-08T03:32:38.094Z,5.25
2022-12-08T03:35:12.445Z,3.75
2022-12-08T03:37:42.179Z,3.75
2022-12-08T03:40:16.254Z,4.00
2022-12-08T03:42:44.716Z,3.75
2022-12-08T03:45:13.518Z,3.75
2022-12-08T03:47:41.853Z,3.00
2022-12-08T03:50:11.555Z,2.75
2022-12-08T03:52:39.921Z,4.00
2022-12-08T03:55:08.764Z,3.50
2022-12-08T03:57:37.217Z,5.00
2022-12-08T04:00:07.814Z,4.75
2022-12-08T04:02:36.379Z,4.00
2022-12-08T04:05:04.868Z,4.00
2022-12-08T04:07:33.272Z,3.50
2022-12-08T04:10:01.779Z,3.00
2022-12-08T04:12:30.350Z,2.25
2022-12-08T04:14:58.684Z,3.00
2022-12-08T04:17:27.009Z,4.00
2022-12-08T04:19:55.403Z,4.00
2022-12-08T04:22:23.836Z,3.25
2022-12-08T04:24:52.294Z,3.00
2022-12-08T04:27:20.674Z,3.50
2022-12-08T04:29:49.001Z,2.25
2022-12-08T04:32:17.426Z,3.00
2022-12-08T04:34:45.736Z,2.50
2022-12-08T04:37:14.060Z,2.75
2022-12-08T04:39:42.443Z,4.00
2022-12-08T04:42:10.783Z,3.00
2022-12-08T04:44:39.120Z,2.00
2022-12-08T04:47:07.435Z,2.75
2022-12-08T04:49:35.770Z,2.00
2022-12-08T04:52:04.453Z,3.00
2022-12-08T04:54:32.883Z,2.00
2022-12-08T04:57:01.266Z,2.00
2022-12-08T04:59:29.638Z,3.00
2022-12-08T05:01:58.216Z,2.25
2022-12-08T05:04:26.843Z,2.00
2022-12-08T05:06:55.179Z,2.00
2022-12-08T05:09:23.684Z,2.00
2022-12-08T05:11:52.067Z,2.00
2022-12-08T05:14:21.039Z,2.00
2022-12-08T05:16:49.479Z,2.00
2022-12-08T05:19:18.179Z,2.25
2022-12-08T05:21:46.673Z,2.75
2022-12-08T05:24:15.025Z,2.00
2022-12-08T05:26:43.399Z,3.00
2022-12-08T05:29:11.773Z,2.00
2022-12-08T05:31:40.187Z,3.00
2022-12-08T05:34:08.552Z,2.00
2022-12-08T05:36:36.867Z,3.00
2022-12-08T05:39:05.259Z,4.25
2022-12-08T05:41:33.554Z,3.00
2022-12-08T05:44:01.952Z,3.00
2022-12-08T05:46:30.544Z,4.00
2022-12-08T05:49:01.257Z,2.00
2022-12-08T05:51:29.900Z,3.00
2022-12-08T05:53:58.322Z,2.50
2022-12-08T05:56:26.926Z,4.25
2022-12-08T05:58:55.320Z,2.00
2022-12-08T06:01:29.263Z,2.00
2022-12-08T06:03:59.791Z,2.75
2022-12-08T06:06:28.981Z,3.00
2022-12-08T06:08:57.552Z,4.00
2022-12-08T06:11:28.800Z,3.25
2022-12-08T06:13:59.367Z,2.50
2022-12-08T06:16:29.419Z,2.75
2022-12-08T06:18:58.549Z,4.00
2022-12-08T06:21:27.599Z,11.25
2022-12-08T06:23:56.513Z,4.50
2022-12-08T06:26:25.089Z,3.75
2022-12-08T06:28:53.821Z,2.25
2022-12-08T06:31:27.322Z,2.00
2022-12-08T06:33:56.814Z,2.00
2022-12-08T06:36:28.010Z,1.00
2022-12-08T06:38:56.574Z,2.00
2022-12-08T06:41:25.336Z,3.00
2022-12-08T06:43:56.550Z,2.00
2022-12-08T06:46:25.106Z,1.75
2022-12-08T06:48:53.617Z,2.00
2022-12-08T06:51:24.398Z,2.00
2022-12-08T06:53:52.741Z,1.50
2022-12-08T06:56:21.446Z,1.25
2022-12-08T06:58:52.764Z,1.25
2022-12-08T07:01:21.458Z,1.50
2022-12-08T07:03:50.044Z,2.00
2022-12-08T07:06:22.835Z,2.00
2022-12-08T07:08:51.452Z,1.75
2022-12-08T07:11:22.309Z,2.25
2022-12-08T07:13:51.789Z,2.25
2022-12-08T07:16:20.375Z,2.00
2022-12-08T07:18:48.776Z,2.00
2022-12-08T07:21:18.770Z,2.00
2022-12-08T07:23:52.712Z,2.00
2022-12-08T07:26:26.253Z,1.25
2022-12-08T07:28:54.601Z,1.75
2022-12-08T07:31:25.860Z,1.50
2022-12-08T07:33:54.686Z,2.00
2022-12-08T07:36:23.915Z,2.25
2022-12-08T07:38:54.302Z,2.00
2022-12-08T07:41:25.625Z,2.75
2022-12-08T07:43:54.886Z,1.50
2022-12-08T07:46:26.370Z,1.50
2022-12-08T07:48:56.411Z,2.00
2022-12-08T07:51:26.115Z,1.00
2022-12-08T07:53:55.351Z,1.75
2022-12-08T07:56:24.377Z,2.00
2022-12-08T07:58:52.900Z,1.00
2022-12-08T08:01:29.914Z,1.00
2022-12-08T08:04:02.842Z,1.00
2022-12-08T08:06:33.350Z,2.00
2022-12-08T08:09:01.834Z,2.00
2022-12-08T08:11:30.160Z,2.75
2022-12-08T08:13:59.363Z,2.00
2022-12-08T08:16:28.589Z,1.75
2022-12-08T08:18:59.368Z,1.00
2022-12-08T08:21:50.725Z,2.00
2022-12-08T08:24:19.194Z,1.75
2022-12-08T08:26:47.837Z,2.00
2022-12-08T08:29:20.146Z,2.00
2022-12-08T08:31:49.061Z,1.00
2022-12-08T08:34:17.807Z,1.00
2022-12-08T08:36:46.263Z,1.00
2022-12-08T08:39:15.477Z,2.00
2022-12-08T08:41:43.863Z,2.50
2022-12-08T08:44:14.026Z,3.00
2022-12-08T08:46:42.889Z,1.50
2022-12-08T08:49:11.301Z,1.00
2022-12-08T08:51:39.776Z,1.75
2022-12-08T08:54:10.748Z,1.75
2022-12-08T08:56:39.561Z,2.00
2022-12-08T08:59:07.944Z,1.00
2022-12-08T09:01:36.496Z,2.25
2022-12-08T09:04:04.984Z,2.50
2022-12-08T09:06:33.578Z,1.00
2022-12-08T09:09:01.951Z,2.00
2022-12-08T09:11:30.389Z,1.00
2022-12-08T09:13:58.809Z,1.50
2022-12-08T09:16:27.233Z,1.25
2022-12-08T09:18:55.990Z,2.00
2022-12-08T09:21:27.529Z,1.75
2022-12-08T09:23:58.511Z,2.25
2022-12-08T09:26:28.882Z,1.75
2022-12-08T09:28:58.709Z,1.50
2022-12-08T09:31:27.467Z,2.00
2022-12-08T09:33:55.977Z,1.75
2022-12-08T09:36:24.362Z,2.00
2022-12-08T09:38:54.665Z,2.00
2022-12-08T09:41:28.250Z,2.50
2022-12-08T09:44:14.061Z,2.50
2022-12-08T09:46:44.490Z,2.00
2022-12-08T09:49:18.028Z,3.25
2022-12-08T09:51:49.600Z,3.00
2022-12-08T09:54:26.180Z,2.50
2022-12-08T09:57:01.138Z,3.00
2022-12-08T09:59:34.450Z,3.00
2022-12-08T10:02:03.691Z,4.00
2022-12-08T10:04:42.425Z,4.00
2022-12-08T10:07:33.537Z,3.00
2022-12-08T10:10:26.022Z,2.50
2022-12-08T10:13:23.398Z,2.75
2022-12-08T10:16:00.428Z,3.00
2022-12-08T10:18:32.188Z,3.00
2022-12-08T10:21:23.152Z,2.00
2022-12-08T10:23:56.890Z,3.00
2022-12-08T10:26:25.499Z,2.75
2022-12-08T10:28:53.999Z,3.25
2022-12-08T10:31:25.791Z,2.25
2022-12-08T10:34:00.981Z,3.00
2022-12-08T10:36:48.195Z,1.50
2022-12-08T10:39:32.106Z,3.00
2022-12-08T10:42:04.514Z,2.75
2022-12-08T10:44:32.945Z,2.50
2022-12-08T10:47:01.392Z,3.25
2022-12-08T10:49:33.375Z,4.25
2022-12-08T10:52:01.749Z,5.00
2022-12-08T10:54:35.210Z,3.75
2022-12-08T10:57:03.564Z,4.25
2022-12-08T10:59:34.839Z,4.00
2022-12-08T11:02:03.364Z,4.75
2022-12-08T11:04:38.550Z,3.75
2022-12-08T11:07:09.974Z,5.25
2022-12-08T11:09:49.671Z,6.00
2022-12-08T11:12:21.075Z,7.00
2022-12-08T11:15:04.061Z,6.50
2022-12-08T11:17:42.718Z,7.00
2022-12-08T11:20:11.007Z,5.00
2022-12-08T11:22:43.874Z,7.75
2022-12-08T11:25:14.139Z,8.00
2022-12-08T11:27:48.720Z,11.75
2022-12-08T11:30:20.441Z,14.25
2022-12-08T11:33:03.376Z,16.75
2022-12-08T11:35:42.736Z,22.25
2022-12-08T11:38:22.095Z,24.50
2022-12-08T11:41:14.007Z,19.75
2022-12-08T11:44:08.708Z,15.00
2022-12-08T11:46:53.915Z,23.50
2022-12-08T11:49:22.384Z,13.75
2022-12-08T11:52:01.184Z,15.25
2022-12-08T11:54:35.586Z,17.50
2022-12-08T11:57:07.758Z,13.50
2022-12-08T11:59:40.489Z,9.25
2022-12-08T12:02:25.087Z,10.25
2022-12-08T12:05:02.251Z,13.00
2022-12-08T12:07:56.568Z,10.25
2022-12-08T12:10:44.600Z,11.75
2022-12-08T12:13:33.993Z,11.50
2022-12-08T12:16:23.298Z,10.75
2022-12-08T12:18:53.560Z,12.25
2022-12-08T12:21:35.028Z,10.75
2022-12-08T12:24:28.411Z,10.50
2022-12-08T12:27:04.191Z,7.50
2022-12-08T12:29:36.549Z,8.25
2022-12-08T12:32:08.725Z,7.00
2022-12-08T12:34:50.169Z,6.75
2022-12-08T12:37:23.290Z,6.00
2022-12-08T12:39:54.533Z,8.00
2022-12-08T12:42:49.536Z,6.50
2022-12-08T12:45:17.827Z,6.75
2022-12-08T12:47:56.355Z,7.75
2022-12-08T12:50:34.332Z,9.25
2022-12-08T12:53:13.698Z,8.50
2022-12-08T12:55:54.422Z,7.00
2022-12-08T12:58:31.972Z,9.25
2022-12-08T13:01:12.966Z,7.50
2022-12-08T13:04:04.022Z,6.50
2022-12-08T13:06:47.006Z,8.25
2022-12-08T13:09:38.381Z,8.50
2022-12-08T13:12:13.652Z,8.00
2022-12-08T13:14:51.868Z,9.00
2022-12-08T13:17:30.083Z,8.25
2022-12-08T13:20:02.755Z,10.00
2022-12-08T13:22:55.836Z,10.25
2022-12-08T13:25:42.581Z,10.00
2022-12-08T13:28:29.143Z,9.50
2022-12-08T13:30:59.856Z,10.00
2022-12-08T13:33:41.541Z,8.00
2022-12-08T13:36:27.606Z,10.00
2022-12-08T13:38:59.003Z,10.00
2022-12-08T13:41:45.583Z,9.75
2022-12-08T13:48:26.701Z,11.00
2022-12-08T13:57:08.521Z,9.75
2022-12-08T13:59:45.644Z,9.50
2022-12-08T14:02:35.255Z,9.25
2022-12-08T14:05:23.766Z,10.00
2022-12-08T14:07:56.411Z,9.50
2022-12-08T14:10:32.989Z,9.50
2022-12-08T14:13:05.055Z,10.25
2022-12-08T14:15:38.639Z,9.50
2022-12-08T14:18:08.346Z,12.75
2022-12-08T14:21:05.068Z,9.25
2022-12-08T14:23:25.685Z,12.50
2022-12-08T14:25:54.068Z,12.00
2022-12-08T14:28:22.752Z,11.25
2022-12-08T14:30:52.331Z,11.00
2022-12-08T14:33:20.990Z,10.00
2022-12-08T14:35:55.751Z,11.00
2022-12-08T14:38:27.446Z,11.00
2022-12-08T14:41:03.773Z,10.25
2022-12-08T14:43:33.125Z,12.75
2022-12-08T14:46:07.492Z,13.00
2022-12-08T14:48:35.811Z,11.00
2022-12-08T14:51:07.025Z,11.25
2022-12-08T14:53:40.503Z,12.00
2022-12-08T14:56:18.810Z,9.00
2022-12-08T14:58:48.919Z,10.75
2022-12-08T15:01:23.448Z,9.75
2022-12-08T15:03:52.251Z,10.00
2022-12-08T15:06:23.704Z,12.00
2022-12-08T15:08:59.735Z,12.00
2022-12-08T15:11:33.950Z,12.25
2022-12-08T15:14:02.349Z,12.25
2022-12-08T15:16:43.186Z,11.00
2022-12-08T15:19:34.452Z,11.25
2022-12-08T15:22:22.335Z,12.25
2022-12-08T15:24:50.796Z,12.25
2022-12-08T15:27:24.960Z,9.00
2022-12-08T15:29:53.889Z,12.25
2022-12-08T15:32:24.578Z,10.00
2022-12-08T15:34:52.921Z,10.75
2022-12-08T15:37:27.259Z,11.00
2022-12-08T15:39:55.633Z,11.75
2022-12-08T15:42:23.968Z,11.00
2022-12-08T15:44:52.393Z,12.00
2022-12-08T15:47:23.434Z,11.00
2022-12-08T15:49:56.306Z,12.50
2022-12-08T15:52:26.002Z,10.50
2022-12-08T15:54:55.713Z,13.00
2022-12-08T15:58:04.112Z,12.25
2022-12-08T16:09:43.496Z,11.75
2022-12-08T16:18:24.772Z,12.25
2022-12-08T16:23:43.611Z,11.75
2022-12-08T16:26:26.108Z,14.25
2022-12-08T16:29:05.430Z,9.25
2022-12-08T16:31:34.261Z,10.00
2022-12-08T16:34:02.681Z,12.75
2022-12-08T16:36:32.004Z,10.00
2022-12-08T16:39:00.361Z,8.50
2022-12-08T16:41:46.873Z,13.00
2022-12-08T16:44:15.293Z,10.25
2022-12-08T16:46:43.793Z,11.00
2022-12-08T16:49:12.199Z,10.75
2022-12-08T16:51:43.277Z,11.00
2022-12-08T16:54:11.744Z,11.00
2022-12-08T16:56:40.185Z,12.00
2022-12-08T16:59:08.509Z,8.50
2022-12-08T17:01:38.222Z,9.00
2022-12-08T17:04:30.607Z,13.50
2022-12-08T17:06:55.160Z,10.75
2022-12-08T17:09:23.565Z,11.00
2022-12-08T17:11:51.922Z,12.25
2022-12-08T17:14:20.232Z,9.25
2022-12-08T17:16:48.658Z,11.00
2022-12-08T17:19:18.060Z,11.00
2022-12-08T17:21:46.505Z,9.00
2022-12-08T17:24:18.536Z,10.00
2022-12-08T17:26:50.319Z,10.25
2022-12-08T17:29:19.702Z,11.75
2022-12-08T17:31:48.111Z,11.25
2022-12-08T17:34:16.513Z,12.25
2022-12-08T17:36:45.256Z,8.50
2022-12-08T17:39:18.442Z,7.75
2022-12-08T17:41:47.832Z,11.75
2022-12-08T17:44:19.263Z,7.50
2022-12-08T17:46:52.617Z,10.00
2022-12-08T17:49:24.685Z,10.25
2022-12-08T17:51:55.494Z,8.75
2022-12-08T17:54:24.383Z,8.50
2022-12-08T17:56:53.209Z,8.00
2022-12-08T17:59:21.767Z,9.00
2022-12-08T18:01:50.252Z,8.75
2022-12-08T18:04:18.586Z,8.00
2022-12-08T18:06:47.833Z,7.75
2022-12-08T18:09:16.913Z,7.00
2022-12-08T18:11:47.074Z,8.25
2022-12-08T18:14:16.302Z,9.25
2022-12-08T18:16:47.352Z,9.00
2022-12-08T18:19:16.441Z,8.00
2022-12-08T18:21:45.261Z,9.75
2022-12-08T18:24:20.403Z,8.50
2022-12-08T18:26:49.076Z,7.00
2022-12-08T18:29:17.401Z,6.50
2022-12-08T18:31:45.795Z,6.00
2022-12-08T18:34:14.199Z,8.25
2022-12-08T18:36:42.982Z,8.75
2022-12-08T18:39:23.129Z,7.50
2022-12-08T18:41:51.924Z,5.25
2022-12-08T18:44:20.650Z,5.75
2022-12-08T18:46:49.627Z,6.25
2022-12-08T18:49:20.180Z,7.50
2022-12-08T18:51:48.663Z,6.50
2022-12-08T18:54:17.286Z,7.00
2022-12-08T18:56:45.686Z,7.00
2022-12-08T18:59:14.720Z,7.00
2022-12-08T19:01:43.426Z,7.00
2022-12-08T19:04:27.939Z,6.75
2022-12-08T19:06:57.553Z,6.00
2022-12-08T19:09:27.663Z,8.00
2022-12-08T19:11:56.540Z,6.00
2022-12-08T19:14:28.222Z,9.00
2022-12-08T19:16:57.469Z,7.25
2022-12-08T19:19:27.292Z,7.00
2022-12-08T19:21:55.598Z,7.00
2022-12-08T19:24:24.852Z,6.00
2022-12-08T19:26:53.621Z,5.50
2022-12-08T19:29:22.484Z,6.00
2022-12-08T19:31:50.859Z,7.50
2022-12-08T19:34:19.610Z,7.50
2022-12-08T19:36:48.002Z,6.00
2022-12-08T19:39:40.259Z,7.00
2022-12-08T19:42:38.685Z,5.25
2022-12-08T19:45:22.135Z,6.00
2022-12-08T19:47:50.577Z,8.50
2022-12-08T19:50:37.094Z,4.00
2022-12-08T19:53:15.001Z,7.50
2022-12-08T19:55:44.640Z,6.00
2022-12-08T19:58:13.000Z,7.00
2022-12-08T20:00:42.328Z,7.00
2022-12-08T20:03:15.324Z,6.00
2022-12-08T20:05:45.029Z,7.25
2022-12-08T20:08:13.783Z,6.00
2022-12-08T20:10:45.607Z,6.00
2022-12-08T20:13:32.303Z,6.50
2022-12-08T20:16:00.809Z,7.00
2022-12-08T20:18:29.706Z,6.00
2022-12-08T20:20:58.138Z,8.50
2022-12-08T20:23:26.460Z,7.25
2022-12-08T20:25:54.785Z,6.00
2022-12-08T20:28:23.567Z,7.00
2022-12-08T20:30:52.628Z,7.00
2022-12-08T20:33:21.489Z,5.00
2022-12-08T20:35:59.259Z,5.00
2022-12-08T20:38:28.651Z,5.00
2022-12-08T20:40:58.873Z,6.50
2022-12-08T20:43:27.841Z,5.00
2022-12-08T20:45:56.220Z,7.00
2022-12-08T20:48:24.552Z,7.00
2022-12-08T20:50:53.426Z,5.00
2022-12-08T20:53:21.883Z,5.00
2022-12-08T20:55:50.229Z,6.75
2022-12-08T20:58:18.879Z,6.50
2022-12-08T21:00:47.383Z,5.00
2022-12-08T21:03:16.914Z,6.00
2022-12-08T21:05:52.942Z,4.00
2022-12-08T21:08:21.850Z,5.50
2022-12-08T21:10:58.225Z,4.00
2022-12-08T21:16:16.889Z,3.00
2022-12-08T21:18:45.273Z,7.00
2022-12-08T21:21:17.476Z,6.00
2022-12-08T21:23:46.407Z,4.75
2022-12-08T21:26:18.433Z,5.75
2022-12-08T21:28:47.549Z,4.00
2022-12-08T21:31:18.905Z,6.00
2022-12-08T21:33:47.422Z,5.75
2022-12-08T21:36:19.096Z,4.00
2022-12-08T21:38:48.390Z,5.25
2022-12-08T21:44:27.138Z,4.25
2022-12-08T21:47:20.150Z,4.00
2022-12-08T21:49:48.931Z,5.00
2022-12-08T21:52:17.288Z,3.00
2022-12-08T21:54:45.606Z,6.00
2022-12-08T21:57:14.690Z,3.75
2022-12-08T21:59:43.810Z,4.75
2022-12-08T22:02:22.036Z,5.00
2022-12-08T22:04:51.500Z,5.00
2022-12-08T22:07:21.341Z,5.00
2022-12-08T22:09:50.209Z,4.50
2022-12-08T22:12:18.708Z,6.00
2022-12-08T22:14:47.278Z,5.00
2022-12-08T22:17:15.824Z,5.75
2022-12-08T22:19:44.649Z,5.75
2022-12-08T22:22:13.639Z,4.25
2022-12-08T22:24:42.502Z,4.50
2022-12-08T22:27:11.348Z,6.25
2022-12-08T22:29:40.287Z,3.75
2022-12-08T22:32:09.150Z,6.00
2022-12-08T22:34:38.189Z,5.00
2022-12-08T22:37:07.069Z,3.00
2022-12-08T22:39:37.373Z,4.00
2022-12-08T22:42:06.517Z,6.50
2022-12-08T22:44:35.550Z,5.25
2022-12-08T22:47:04.517Z,5.00
2022-12-08T22:49:33.439Z,5.50
2022-12-08T22:52:02.484Z,6.00
2022-12-08T22:54:31.544Z,5.25
2022-12-08T22:57:00.086Z,5.50
2022-12-08T22:59:30.099Z,5.00
2022-12-08T23:01:58.552Z,8.25
2022-12-08T23:04:27.277Z,8.00
2022-12-08T23:06:55.873Z,7.00
2022-12-08T23:09:24.675Z,7.00
2022-12-08T23:11:53.598Z,7.50
2022-12-08T23:14:21.954Z,6.00
2022-12-08T23:16:50.524Z,7.25
2022-12-08T23:19:18.991Z,7.00
2022-12-08T23:21:48.323Z,9.50
2022-12-08T23:24:16.830Z,8.25
2022-12-08T23:26:45.223Z,8.00
2022-12-08T23:29:13.898Z,9.75
2022-12-08T23:31:42.544Z,8.75
2022-12-08T23:34:11.623Z,8.50
2022-12-08T23:36:39.997Z,8.50
2022-12-08T23:39:08.626Z,10.00
2022-12-08T23:41:37.060Z,8.75
2022-12-08T23:44:05.600Z,7.25
2022-12-08T23:46:33.925Z,9.00
2022-12-08T23:49:02.581Z,8.75
2022-12-08T23:51:31.583Z,11.25
2022-12-08T23:54:00.255Z,11.50
2022-12-08T23:56:30.426Z,9.50
2022-12-08T23:58:59.428Z,11.00
